Time;durP1;ratioP1;P1;durP2;ratioP2;P2;SDS_P1;SDS_P2;PMS_P1;PMS_P2;Temp;Humidity;BMP_temperature;BMP_pressure;BME280_temperature;BME280_humidity;BME280_pressure;Samples;Min_cycle;Max_cycle;Signal;HPM_P1;HPM_P2
2021/05/04 00:00:22;;;;;;;3.67;3.10;;;;;;;9.48;47.79;100012.72;5117518;28;20715;-79
2021/05/04 00:02:49;;;;;;;4.60;2.73;;;;;;;9.50;48.01;100005.47;5118304;27;20193;-79
2021/05/04 00:05:15;;;;;;;4.40;3.27;;;;;;;9.51;47.60;99996.53;5119189;27;20438;-79
2021/05/04 00:07:41;;;;;;;3.93;3.20;;;;;;;9.52;48.35;99987.63;5113844;28;20259;-78
2021/05/04 00:10:08;;;;;;;4.50;3.43;;;;;;;9.53;47.92;99972.53;5118911;27;20311;-79
2021/05/04 00:12:35;;;;;;;4.30;3.30;;;;;;;9.54;48.41;99975.06;5121324;27;20207;-79
2021/05/04 00:15:01;;;;;;;3.20;2.90;;;;;;;9.56;47.86;99965.19;5124285;28;20318;-80
2021/05/04 00:17:27;;;;;;;3.60;2.87;;;;;;;9.58;48.22;99951.78;5124239;28;20204;-79
2021/05/04 00:19:54;;;;;;;4.43;3.33;;;;;;;9.58;47.99;99951.78;5122572;28;20218;-78
2021/05/04 00:22:20;;;;;;;6.00;3.70;;;;;;;9.61;47.80;99949.78;5123237;28;20206;-78
2021/05/04 00:24:46;;;;;;;4.40;2.80;;;;;;;9.64;47.81;99938.94;5123159;28;20219;-79
2021/05/04 00:27:12;;;;;;;4.20;2.97;;;;;;;9.65;47.57;99937.13;5122559;28;20199;-80
2021/05/04 00:29:38;;;;;;;3.80;3.37;;;;;;;9.66;47.61;99921.06;5120243;28;20220;-80
2021/05/04 00:32:05;;;;;;;4.67;3.83;;;;;;;9.66;47.61;99920.22;5119821;28;20640;-80
2021/05/04 00:34:31;;;;;;;4.60;3.27;;;;;;;9.65;47.68;99914.03;5119662;28;20276;-79
2021/05/04 00:36:58;;;;;;;4.73;3.13;;;;;;;9.67;48.02;99900.66;5119588;28;20207;-79
2021/05/04 00:39:29;;;;;;;3.77;3.33;;;;;;;9.68;47.74;99892.53;5119501;28;20199;-79
2021/05/04 00:41:55;;;;;;;3.47;3.17;;;;;;;9.69;47.92;99882.75;5123315;28;20629;-77
2021/05/04 00:44:22;;;;;;;3.63;3.13;;;;;;;9.70;47.58;99879.13;5112957;28;20228;-77
2021/05/04 00:46:48;;;;;;;3.40;3.07;;;;;;;9.72;48.22;99874.56;5121198;27;20208;-77
2021/05/04 00:49:14;;;;;;;4.30;3.20;;;;;;;9.74;47.59;99864.66;5122419;27;20263;-78
2021/05/04 00:51:40;;;;;;;5.23;3.87;;;;;;;9.77;47.80;99858.28;5125558;27;20241;-78
2021/05/04 00:54:07;;;;;;;4.10;3.50;;;;;;;9.77;47.39;99844.97;5126742;27;20285;-78
2021/05/04 00:56:35;;;;;;;3.73;3.37;;;;;;;9.80;47.76;99850.94;5124876;27;20594;-79
2021/05/04 00:59:01;;;;;;;4.57;3.63;;;;;;;9.82;47.28;99834.88;5111127;28;20218;-79
2021/05/04 01:01:29;;;;;;;4.73;3.60;;;;;;;9.85;47.32;99829.31;5112903;27;20208;-79
2021/05/04 01:03:56;;;;;;;3.70;3.40;;;;;;;9.87;47.67;99824.72;5112139;27;20276;-80
2021/05/04 01:06:22;;;;;;;5.77;3.67;;;;;;;9.89;47.71;99814.81;5119373;27;20200;-80
2021/05/04 01:08:48;;;;;;;4.30;3.30;;;;;;;9.91;47.66;99802.25;5117566;27;20213;-80
2021/05/04 01:11:15;;;;;;;4.30;3.57;;;;;;;9.92;47.52;99788.84;5119398;27;20297;-80
2021/05/04 01:13:44;;;;;;;3.77;3.47;;;;;;;9.95;47.40;99779.78;5129766;27;20216;-79
2021/05/04 01:16:10;;;;;;;4.10;3.37;;;;;;;9.97;46.76;99775.22;5116284;28;20235;-79
2021/05/04 01:18:36;;;;;;;3.90;3.40;;;;;;;10.00;47.08;99764.34;5111647;27;20724;-79
2021/05/04 01:21:03;;;;;;;4.90;3.63;;;;;;;9.99;46.95;99757.34;5126540;27;20223;-79
2021/05/04 01:23:29;;;;;;;4.40;3.60;;;;;;;10.01;47.30;99736.78;5114431;28;20204;-79
2021/05/04 01:25:56;;;;;;;5.00;3.40;;;;;;;10.03;47.22;99741.00;5130155;27;20222;-79
2021/05/04 01:28:22;;;;;;;3.73;3.00;;;;;;;10.05;46.91;99730.25;5122993;27;20208;-78
2021/05/04 01:30:48;;;;;;;5.30;3.20;;;;;;;10.05;46.95;99714.28;5103217;28;20224;-78
2021/05/04 01:33:14;;;;;;;4.30;3.70;;;;;;;10.06;46.81;99711.50;5113335;27;20199;-78
2021/05/04 01:35:40;;;;;;;4.53;3.50;;;;;;;10.07;47.15;99699.91;5126272;27;20282;-78
2021/05/04 01:38:07;;;;;;;4.57;3.47;;;;;;;10.08;46.93;99684.78;5126374;27;20291;-78
2021/05/04 01:40:33;;;;;;;4.33;3.53;;;;;;;10.10;46.41;99682.88;5125465;27;20637;-78
2021/05/04 01:42:59;;;;;;;3.73;3.33;;;;;;;10.13;46.70;99672.00;5102438;28;20203;-79
2021/05/04 01:45:25;;;;;;;3.93;3.37;;;;;;;10.14;47.02;99668.38;5108827;28;20261;-79
2021/05/04 01:47:52;;;;;;;4.73;3.60;;;;;;;10.16;46.45;99653.13;5123421;28;20200;-79
2021/05/04 01:50:18;;;;;;;3.93;3.33;;;;;;;10.17;46.11;99638.88;5123350;27;20227;-79
2021/05/04 01:52:44;;;;;;;4.70;3.80;;;;;;;10.19;46.42;99636.13;5128040;27;20202;-79
2021/05/04 01:55:12;;;;;;;3.37;3.07;;;;;;;10.20;45.95;99629.84;5135108;27;20248;-79
2021/05/04 01:57:38;;;;;;;5.00;3.53;;;;;;;10.22;46.31;99618.09;5130904;27;20283;-79
2021/05/04 02:00:06;;;;;;;4.40;3.53;;;;;;;10.24;46.41;99615.31;5119969;28;20286;-80
2021/05/04 02:02:33;;;;;;;4.47;3.20;;;;;;;10.25;45.86;99601.03;5106750;27;20656;-79
2021/05/04 02:04:59;;;;;;;4.80;3.33;;;;;;;10.24;46.54;99575.38;5111377;27;20586;-78
2021/05/04 02:07:25;;;;;;;4.90;3.13;;;;;;;10.26;46.38;99578.78;5104879;22;20233;-66
2021/05/04 02:09:51;;;;;;;5.57;3.03;;;;;;;10.28;46.45;99571.53;5079526;28;20228;-66
2021/05/04 02:12:18;;;;;;;3.60;3.30;;;;;;;10.28;46.41;99567.06;5078554;28;20312;-66
2021/05/04 02:14:44;;;;;;;4.90;3.00;;;;;;;10.30;45.61;99549.16;5071650;28;20221;-65
2021/05/04 02:17:10;;;;;;;4.90;3.70;;;;;;;10.31;45.81;99550.00;5055595;28;22108;-66
2021/05/04 02:19:37;;;;;;;4.53;3.10;;;;;;;10.30;45.72;99527.88;5069344;28;20204;-66
2021/05/04 02:24:31;;;;;;;3.87;3.37;;;;;;;10.32;46.17;99525.94;5102786;28;20212;-65
2021/05/04 02:26:57;;;;;;;3.83;3.50;;;;;;;10.32;46.44;99501.97;5099861;28;20666;-65
2021/05/04 02:29:24;;;;;;;4.80;3.30;;;;;;;10.33;46.55;99492.19;5093439;28;20349;-64
2021/05/04 02:31:50;;;;;;;3.90;3.27;;;;;;;10.33;45.91;99498.34;5096959;28;20228;-65
2021/05/04 02:34:16;;;;;;;4.07;3.30;;;;;;;10.34;46.29;99480.56;5081670;28;20281;-66
2021/05/04 02:36:42;;;;;;;4.47;3.43;;;;;;;10.35;46.19;99461.81;5078599;28;20397;-65
2021/05/04 02:39:08;;;;;;;6.20;3.70;;;;;;;10.38;45.67;99458.06;5072807;28;20215;-65
2021/05/04 02:41:34;;;;;;;3.63;3.33;;;;;;;10.40;46.02;99448.09;5085740;28;20228;-65
2021/05/04 02:44:01;;;;;;;4.93;3.33;;;;;;;10.43;45.49;99440.72;5083369;28;20204;-65
2021/05/04 02:46:29;;;;;;;6.50;3.03;;;;;;;10.46;46.03;99436.97;5082876;28;20215;-65
2021/05/04 02:48:55;;;;;;;6.10;3.47;;;;;;;10.48;45.61;99419.06;5074737;28;20783;-65
2021/05/04 02:51:21;;;;;;;4.77;3.57;;;;;;;10.51;45.77;99412.63;5078218;28;20228;-65
2021/05/04 02:53:47;;;;;;;4.20;3.13;;;;;;;10.54;45.89;99404.41;5085099;28;20591;-65
2021/05/04 02:56:13;;;;;;;4.60;3.50;;;;;;;10.56;45.55;99379.34;5073394;28;20216;-65
2021/05/04 02:58:39;;;;;;;5.20;3.87;;;;;;;10.57;45.72;99375.69;5082019;28;20212;-65
2021/05/04 03:01:06;;;;;;;6.03;3.80;;;;;;;10.59;45.75;99365.75;5070062;28;20774;-64
2021/05/04 03:03:34;;;;;;;4.27;3.83;;;;;;;10.60;45.01;99355.97;5071578;28;20217;-65
2021/05/04 03:06:00;;;;;;;6.00;3.73;;;;;;;10.61;45.87;99347.00;5082926;28;20212;-65
2021/05/04 03:08:26;;;;;;;5.50;3.60;;;;;;;10.59;45.74;99336.47;5077001;28;20196;-65
2021/05/04 03:10:52;;;;;;;4.63;3.43;;;;;;;10.61;45.42;99325.69;5077093;28;20225;-65
2021/05/04 03:13:22;;;;;;;4.80;3.90;;;;;;;10.61;45.28;99307.91;5072562;28;20795;-65
2021/05/04 03:15:48;;;;;;;4.17;3.50;;;;;;;10.63;45.24;99297.13;5075661;28;20230;-65
2021/05/04 03:18:14;;;;;;;5.67;3.47;;;;;;;10.65;45.52;99293.38;5083920;28;20204;-66
2021/05/04 03:20:41;;;;;;;4.57;3.40;;;;;;;10.64;45.30;99293.50;5087960;28;20204;-65
2021/05/04 03:23:07;;;;;;;5.00;3.60;;;;;;;10.64;45.63;99280.19;5076515;28;20525;-66
2021/05/04 03:25:33;;;;;;;4.40;3.50;;;;;;;10.64;45.68;99270.38;5083593;28;20201;-65
2021/05/04 03:27:59;;;;;;;8.27;3.60;;;;;;;10.66;45.47;99273.75;5090277;28;20231;-66
2021/05/04 03:30:25;;;;;;;5.23;3.47;;;;;;;10.67;45.57;99251.47;5082463;28;20694;-65
2021/05/04 03:32:51;;;;;;;4.37;3.67;;;;;;;10.67;45.38;99255.97;5074777;28;20231;-66
2021/05/04 03:35:18;;;;;;;5.37;3.60;;;;;;;10.68;45.39;99255.84;5078117;28;20205;-63
2021/05/04 03:37:45;;;;;;;4.63;3.17;;;;;;;10.71;45.70;99230.75;5085985;28;20280;-66
2021/05/04 03:40:12;;;;;;;4.27;3.23;;;;;;;10.72;44.98;99227.97;5077049;28;20597;-66
2021/05/04 03:42:38;;;;;;;4.20;3.07;;;;;;;10.74;45.49;99226.03;5081168;28;20242;-65
2021/05/04 03:45:06;;;;;;;4.93;3.17;;;;;;;10.75;45.15;99209.03;5076083;28;20205;-66
2021/05/04 03:47:32;;;;;;;3.53;3.07;;;;;;;10.75;45.46;99203.72;5085366;28;20207;-65
2021/05/04 03:49:58;;;;;;;5.53;3.27;;;;;;;10.78;45.10;99208.78;5074866;28;20732;-65
2021/05/04 03:52:24;;;;;;;3.70;3.10;;;;;;;10.81;44.84;99205.00;5078090;28;20228;-66
2021/05/04 03:54:51;;;;;;;3.97;3.23;;;;;;;10.86;45.25;99204.63;5073977;28;20212;-65
2021/05/04 03:57:18;;;;;;;3.20;2.90;;;;;;;10.88;44.88;99198.19;5083512;28;20618;-65
2021/05/04 03:59:43;;;;;;;4.53;3.47;;;;;;;10.91;44.49;99199.75;5072301;28;20667;-65
2021/05/04 04:02:09;;;;;;;4.63;3.07;;;;;;;10.96;44.41;99197.50;5074346;28;20311;-66
2021/05/04 04:04:35;;;;;;;3.67;2.70;;;;;;;10.96;44.41;99181.50;5078737;28;20246;-66
2021/05/04 04:07:01;;;;;;;4.73;3.10;;;;;;;11.02;44.45;99197.81;5079146;28;20619;-66
2021/05/04 04:09:27;;;;;;;5.47;3.33;;;;;;;11.03;44.27;99202.16;5080929;28;20421;-66
2021/05/04 04:11:54;;;;;;;4.10;3.10;;;;;;;11.07;44.45;99182.28;5072568;28;20324;-66
2021/05/04 04:14:20;;;;;;;3.40;2.70;;;;;;;11.10;44.34;99205.97;5075400;28;20690;-66
2021/05/04 04:16:47;;;;;;;3.40;2.80;;;;;;;11.12;44.36;99208.47;5079377;28;20210;-65
2021/05/04 04:19:13;;;;;;;3.30;2.40;;;;;;;11.14;44.39;99209.19;5069707;28;20208;-66
2021/05/04 04:21:39;;;;;;;4.50;2.80;;;;;;;11.18;43.96;99204.44;5071784;28;20775;-66
2021/05/04 04:24:06;;;;;;;3.67;2.77;;;;;;;11.21;43.99;99215.69;5074698;28;20511;-66
2021/05/04 04:26:32;;;;;;;3.60;2.70;;;;;;;11.27;43.85;99200.97;5073883;28;20662;-66
2021/05/04 04:28:59;;;;;;;4.53;2.80;;;;;;;11.31;44.16;99215.69;5081702;28;20232;-65
2021/05/04 04:31:24;;;;;;;2.93;2.53;;;;;;;11.35;44.08;99196.63;5079965;28;20235;-66
2021/05/04 04:33:50;;;;;;;3.37;2.73;;;;;;;11.37;44.04;99207.16;5070796;28;20335;-66
2021/05/04 04:36:16;;;;;;;3.27;2.30;;;;;;;11.40;44.01;99190.88;5074457;28;20213;-66
2021/05/04 04:38:42;;;;;;;3.67;2.57;;;;;;;11.42;44.06;99180.94;5082811;28;20217;-65
2021/05/04 04:41:08;;;;;;;4.27;2.73;;;;;;;11.44;44.33;99179.81;5080303;28;20224;-66
2021/05/04 04:43:34;;;;;;;3.07;2.77;;;;;;;11.44;44.76;99173.66;5083138;28;20342;-66
2021/05/04 04:46:01;;;;;;;3.50;2.30;;;;;;;11.44;45.14;99176.31;5081479;28;20211;-66
2021/05/04 04:48:28;;;;;;;2.83;2.40;;;;;;;11.43;45.30;99193.28;5085108;28;20200;-66
2021/05/04 04:50:54;;;;;;;2.23;2.03;;;;;;;11.40;45.41;99180.22;5082163;28;20240;-66
2021/05/04 04:53:20;;;;;;;2.73;2.13;;;;;;;11.41;44.89;99171.25;5077252;28;21219;-66
2021/05/04 04:55:46;;;;;;;2.60;2.40;;;;;;;11.41;45.31;99182.75;5091393;28;20230;-66
2021/05/04 04:58:12;;;;;;;5.97;2.53;;;;;;;11.38;45.28;99160.84;5092790;28;20678;-66
2021/05/04 05:00:38;;;;;;;2.77;2.20;;;;;;;11.39;45.25;99162.56;5087279;28;20204;-66
2021/05/04 05:03:05;;;;;;;4.60;2.30;;;;;;;11.40;45.46;99170.41;5080392;28;20235;-66
2021/05/04 05:05:31;;;;;;;4.60;2.30;;;;;;;11.38;46.06;99166.19;5091283;28;20250;-66
2021/05/04 05:07:57;;;;;;;2.77;2.53;;;;;;;11.37;46.25;99178.69;5088955;28;20204;-65
2021/05/04 05:10:23;;;;;;;3.03;2.10;;;;;;;11.32;46.97;99162.25;5091964;28;20229;-64
2021/05/04 05:12:49;;;;;;;2.80;2.40;;;;;;;11.30;47.05;99164.19;5084008;28;20752;-66
2021/05/04 05:15:15;;;;;;;3.57;2.17;;;;;;;11.26;47.45;99164.66;5084790;28;20208;-66
2021/05/04 05:17:41;;;;;;;3.93;2.37;;;;;;;11.24;47.63;99166.59;5082722;28;20200;-66
2021/05/04 05:20:09;;;;;;;2.63;2.10;;;;;;;11.20;47.64;99163.34;5079821;28;20224;-66
2021/05/04 05:22:36;;;;;;;3.30;2.20;;;;;;;11.17;48.24;99174.28;5088237;28;20289;-66
2021/05/04 05:25:02;;;;;;;2.13;1.93;;;;;;;11.16;47.96;99166.44;5086744;28;20670;-66
2021/05/04 05:27:30;;;;;;;2.30;1.67;;;;;;;11.14;48.04;99161.22;5085089;28;20200;-67
2021/05/04 05:29:56;;;;;;;2.53;2.13;;;;;;;11.10;48.38;99158.03;5084694;28;20232;-65
2021/05/04 05:32:22;;;;;;;2.87;2.13;;;;;;;11.08;48.79;99175.97;5082836;28;20278;-65
2021/05/04 05:34:48;;;;;;;2.97;2.20;;;;;;;11.07;49.25;99168.94;5087689;28;20211;-66
2021/05/04 05:37:15;;;;;;;5.37;2.33;;;;;;;11.03;49.47;99175.53;5087886;28;20208;-66
2021/05/04 05:39:42;;;;;;;3.10;2.47;;;;;;;11.00;50.21;99190.94;5088651;28;20200;-66
2021/05/04 05:42:09;;;;;;;2.50;2.30;;;;;;;10.96;50.66;99184.19;5090940;28;20297;-65
2021/05/04 05:44:35;;;;;;;2.70;2.50;;;;;;;10.92;51.11;99186.28;5086813;28;20314;-65
2021/05/04 05:47:01;;;;;;;2.97;2.67;;;;;;;10.88;52.04;99187.53;5083622;28;20196;-66
2021/05/04 05:49:28;;;;;;;2.90;2.63;;;;;;;10.83;52.71;99186.22;5078731;28;20216;-66
2021/05/04 05:51:54;;;;;;;2.50;2.30;;;;;;;10.77;53.83;99198.25;5077057;28;20231;-66
2021/05/04 05:54:21;;;;;;;2.87;2.67;;;;;;;10.66;54.84;99207.19;5084322;28;20228;-66
2021/05/04 05:56:47;;;;;;;3.63;2.90;;;;;;;10.57;55.36;99191.19;5076119;28;20756;-67
2021/05/04 05:59:14;;;;;;;3.23;2.87;;;;;;;10.47;56.46;99209.75;5071093;28;20201;-67
2021/05/04 06:01:40;;;;;;;4.37;3.20;;;;;;;10.38;56.89;99195.44;5076289;28;20592;-67
2021/05/04 06:04:06;;;;;;;2.57;2.33;;;;;;;10.28;58.04;99198.97;5079622;28;20586;-68
2021/05/04 06:06:32;;;;;;;4.20;3.40;;;;;;;10.19;58.41;99181.16;5077701;28;20216;-67
2021/05/04 06:08:58;;;;;;;3.33;2.80;;;;;;;10.09;59.07;99179.22;5078640;28;20753;-69
2021/05/04 06:11:25;;;;;;;3.93;3.03;;;;;;;10.03;59.70;99184.25;5078125;28;20311;-68
2021/05/04 06:13:51;;;;;;;6.70;3.20;;;;;;;9.97;60.16;99190.91;5078460;28;20215;-67
2021/05/04 06:16:17;;;;;;;3.87;3.33;;;;;;;9.93;61.19;99186.81;5077285;28;20729;-68
2021/05/04 06:18:43;;;;;;;3.67;3.30;;;;;;;9.87;62.13;99175.84;5079123;28;20213;-69
2021/05/04 06:21:09;;;;;;;3.97;3.57;;;;;;;9.80;62.01;99167.56;5073637;28;20214;-68
2021/05/04 06:23:35;;;;;;;2.93;2.63;;;;;;;9.78;62.63;99160.66;5071669;28;20228;-67
2021/05/04 06:26:01;;;;;;;3.17;2.87;;;;;;;9.73;63.08;99161.03;5077722;28;20262;-68
2021/05/04 06:28:28;;;;;;;4.93;3.10;;;;;;;9.72;63.33;99162.00;5082327;28;20269;-66
2021/05/04 06:30:54;;;;;;;3.23;2.73;;;;;;;9.69;63.19;99144.50;5079755;28;20224;-66
2021/05/04 06:33:21;;;;;;;2.70;2.50;;;;;;;9.69;63.71;99141.00;5076470;28;20518;-66
2021/05/04 06:35:49;;;;;;;2.90;2.57;;;;;;;9.69;64.19;99143.66;5076162;28;20216;-67
2021/05/04 06:38:18;;;;;;;3.43;2.53;;;;;;;9.71;63.79;99131.94;5072610;28;20200;-67
2021/05/04 06:40:46;;;;;;;3.90;1.97;;;;;;;9.78;64.50;99126.09;5078729;28;20694;-67
2021/05/04 06:43:12;;;;;;;2.30;2.00;;;;;;;9.81;64.18;99118.72;5075537;28;20220;-67
2021/05/04 06:45:40;;;;;;;4.40;2.33;;;;;;;9.86;63.22;99113.84;5075942;28;20811;-67
2021/05/04 06:48:06;;;;;;;2.70;2.17;;;;;;;9.88;63.00;99119.03;5071887;28;20205;-67
2021/05/04 06:50:32;;;;;;;1.90;1.57;;;;;;;9.93;64.13;99114.16;5072244;28;20277;-66
2021/05/04 06:52:59;;;;;;;1.63;1.53;;;;;;;9.97;63.66;99107.63;5075711;28;20270;-66
2021/05/04 06:55:25;;;;;;;2.23;1.93;;;;;;;10.00;62.65;99104.72;5071067;28;20200;-65
2021/05/04 06:57:51;;;;;;;2.80;1.57;;;;;;;10.07;63.09;99079.25;5071569;28;20204;-66
2021/05/04 07:00:18;;;;;;;2.53;1.60;;;;;;;10.14;62.33;99092.88;5074346;28;20196;-66
2021/05/04 07:02:45;;;;;;;1.83;1.67;;;;;;;10.21;62.04;99086.91;5075079;28;20289;-66
2021/05/04 07:05:12;;;;;;;2.33;1.77;;;;;;;10.26;62.83;99083.84;5071534;28;20232;-66
2021/05/04 07:07:38;;;;;;;1.93;1.80;;;;;;;10.33;62.42;99087.69;5070918;28;20196;-64
2021/05/04 07:10:05;;;;;;;1.60;1.50;;;;;;;10.35;62.83;99081.25;5071594;28;20323;-67
2021/05/04 07:12:31;;;;;;;2.00;1.80;;;;;;;10.38;62.17;99081.00;5075462;28;20725;-67
2021/05/04 07:14:57;;;;;;;2.00;1.60;;;;;;;10.39;62.17;99090.63;5073389;28;20232;-66
2021/05/04 07:17:24;;;;;;;1.60;1.50;;;;;;;10.37;62.40;99073.97;5075545;28;20208;-66
2021/05/04 07:19:53;;;;;;;2.20;1.97;;;;;;;10.38;61.71;99086.31;5073345;28;20201;-66
2021/05/04 07:22:23;;;;;;;1.60;1.50;;;;;;;10.40;62.06;99089.66;5072291;28;20217;-66
2021/05/04 07:24:49;;;;;;;2.13;1.57;;;;;;;10.40;61.92;99068.38;5071366;28;20197;-66
2021/05/04 07:27:15;;;;;;;1.87;1.57;;;;;;;10.46;62.09;99055.50;5069444;28;20204;-66
2021/05/04 07:29:41;;;;;;;1.80;1.50;;;;;;;10.47;62.26;99059.84;5071446;28;20213;-66
2021/05/04 07:32:07;;;;;;;2.67;1.77;;;;;;;10.48;61.64;99045.56;5070337;28;20332;-66
2021/05/04 07:34:33;;;;;;;1.30;1.20;;;;;;;10.56;61.42;99051.06;5070564;28;20197;-66
2021/05/04 07:37:00;;;;;;;1.50;1.13;;;;;;;10.58;61.43;99041.94;5069305;28;20208;-64
2021/05/04 07:39:26;;;;;;;1.37;1.27;;;;;;;10.64;60.95;99028.09;5068804;28;20205;-65
2021/05/04 07:41:52;;;;;;;1.87;1.33;;;;;;;10.69;60.84;99035.69;5070207;28;20354;-66
2021/05/04 07:44:19;;;;;;;2.53;1.37;;;;;;;10.77;60.52;99014.50;5075482;28;20207;-66
2021/05/04 07:46:45;;;;;;;1.77;1.40;;;;;;;10.81;59.86;99025.75;5076540;28;20291;-65
2021/05/04 07:49:17;;;;;;;1.60;1.50;;;;;;;10.86;60.12;99040.34;5083852;28;20204;-66
2021/05/04 07:51:43;;;;;;;1.50;1.40;;;;;;;10.91;60.52;99042.59;5078940;28;20239;-66
2021/05/04 07:54:10;;;;;;;2.07;1.30;;;;;;;10.97;60.61;99042.84;5079649;28;20300;-66
2021/05/04 07:56:36;;;;;;;1.63;1.40;;;;;;;10.98;60.17;99041.03;5078744;28;20207;-67
2021/05/04 07:59:02;;;;;;;1.47;1.10;;;;;;;10.95;60.36;99047.47;5077489;28;20232;-67
2021/05/04 08:01:28;;;;;;;1.23;1.17;;;;;;;10.95;60.53;99034.16;5079405;28;20211;-65
2021/05/04 08:03:54;;;;;;;2.13;1.00;;;;;;;10.94;61.36;99056.44;5078481;28;20585;-67
2021/05/04 08:06:20;;;;;;;1.27;1.10;;;;;;;10.97;61.18;99031.38;5078639;28;20692;-66
2021/05/04 08:08:46;;;;;;;2.43;1.20;;;;;;;10.98;61.30;99038.38;5077918;28;20291;-66
2021/05/04 08:11:13;;;;;;;1.83;1.10;;;;;;;10.98;61.15;99044.53;5078484;28;20224;-66
2021/05/04 08:13:39;;;;;;;1.57;1.27;;;;;;;11.00;61.27;99045.25;5077268;28;20240;-66
2021/05/04 08:16:06;;;;;;;1.17;1.10;;;;;;;10.99;61.13;99038.25;5090244;28;20203;-66
2021/05/04 08:18:33;;;;;;;1.33;1.10;;;;;;;11.03;61.20;99050.31;5092160;28;20234;-66
2021/05/04 08:20:59;;;;;;;1.30;1.20;;;;;;;11.03;60.77;99037.00;5089785;28;20200;-66
2021/05/04 08:23:26;;;;;;;1.07;1.07;;;;;;;11.04;60.92;99038.66;5112975;22;20234;-69
2021/05/04 08:25:52;;;;;;;3.70;1.10;;;;;;;11.09;61.04;99046.25;5102327;28;20208;-69
2021/05/04 08:28:20;;;;;;;2.07;1.17;;;;;;;11.14;60.70;99044.84;5109865;28;20200;-68
2021/05/04 08:30:46;;;;;;;1.10;0.90;;;;;;;11.15;60.86;99019.03;5102333;28;20228;-69
2021/05/04 08:33:12;;;;;;;1.10;0.83;;;;;;;11.21;60.94;99023.81;5103351;28;20678;-68
2021/05/04 08:35:39;;;;;;;0.97;0.90;;;;;;;11.31;60.89;99007.81;5105763;28;20237;-69
2021/05/04 08:38:05;;;;;;;1.33;1.00;;;;;;;11.39;60.82;99002.63;5104550;28;20208;-69
2021/05/04 08:40:31;;;;;;;2.77;1.00;;;;;;;11.50;60.37;98994.44;5099675;28;20248;-69
2021/05/04 08:42:57;;;;;;;2.27;1.00;;;;;;;11.56;59.91;98988.56;5107015;28;20220;-68
2021/05/04 08:45:25;;;;;;;1.00;0.90;;;;;;;11.63;59.84;98979.00;5107362;28;20200;-67
2021/05/04 08:47:52;;;;;;;1.60;0.90;;;;;;;11.69;59.34;98977.56;5105955;28;20204;-68
2021/05/04 08:50:20;;;;;;;1.30;0.83;;;;;;;11.72;58.91;98986.13;5107656;28;20269;-68
2021/05/04 08:52:46;;;;;;;1.57;1.03;;;;;;;11.74;58.31;98992.16;5107666;28;20288;-67
2021/05/04 08:55:13;;;;;;;1.70;0.83;;;;;;;11.74;58.40;98970.81;5103796;28;20211;-69
2021/05/04 08:57:40;;;;;;;1.40;1.00;;;;;;;11.74;57.84;98980.66;5093197;28;21010;-69
2021/05/04 09:00:08;;;;;;;1.03;0.77;;;;;;;11.71;57.53;98989.78;5093022;28;20670;-69
2021/05/04 09:02:36;;;;;;;0.97;0.80;;;;;;;11.69;57.16;98996.22;5094076;28;20204;-68
2021/05/04 09:05:16;;;;;;;2.33;1.20;;;;;;;11.63;57.39;98992.34;5092022;28;20205;-69
2021/05/04 09:07:43;;;;;;;0.90;0.90;;;;;;;11.62;57.29;98987.16;5099461;28;20211;-68
2021/05/04 09:10:19;;;;;;;1.30;0.90;;;;;;;11.60;57.37;98989.97;5096052;28;20224;-67
2021/05/04 09:12:49;;;;;;;0.73;0.73;;;;;;;11.60;57.55;98970.44;5096455;28;20724;-67
2021/05/04 09:15:47;;;;;;;1.80;0.80;;;;;;;11.66;57.32;98973.34;5097702;28;20578;-68
2021/05/04 09:18:51;;;;;;;1.33;0.60;;;;;;;11.69;57.14;98972.22;5094755;28;20213;-68
2021/05/04 09:21:28;;;;;;;2.17;0.97;;;;;;;11.73;57.04;98981.63;5088162;28;20201;-69
2021/05/04 09:23:55;;;;;;;1.40;0.77;;;;;;;11.75;57.09;98972.50;5108556;27;20234;-69
2021/05/04 09:26:30;;;;;;;2.77;0.70;;;;;;;11.75;56.43;98969.00;5115814;27;20202;-68
2021/05/04 09:28:57;;;;;;;1.10;0.70;;;;;;;11.76;56.28;98986.72;5113800;27;21056;-69
2021/05/04 09:31:25;;;;;;;1.00;0.90;;;;;;;11.76;56.07;98982.22;5117430;27;20325;-68
2021/05/04 09:33:54;;;;;;;1.17;0.77;;;;;;;11.74;55.63;98975.31;5118498;27;20225;-69
2021/05/04 09:36:44;;;;;;;2.17;0.70;;;;;;;11.73;55.94;98984.28;5117947;27;20203;-68
2021/05/04 09:39:12;;;;;;;1.00;0.67;;;;;;;11.70;56.04;98977.44;5113500;27;20661;-68
2021/05/04 09:41:38;;;;;;;1.13;0.70;;;;;;;11.69;56.32;98981.06;5111674;27;20205;-68
2021/05/04 09:44:05;;;;;;;1.13;0.50;;;;;;;11.66;56.67;98976.03;5118185;27;20253;-69
2021/05/04 09:46:48;;;;;;;1.17;0.53;;;;;;;11.62;57.04;98960.47;5120615;27;20545;-68
2021/05/04 09:49:29;;;;;;;1.43;1.13;;;;;;;11.64;57.37;98958.50;5125598;27;20211;-68
2021/05/04 09:52:15;;;;;;;1.03;0.60;;;;;;;11.66;57.43;98933.34;5117435;27;20227;-69
2021/05/04 09:54:42;;;;;;;0.80;0.80;;;;;;;11.68;57.23;98950.06;5119682;27;20566;-68
2021/05/04 09:57:33;;;;;;;1.07;0.77;;;;;;;11.73;57.59;98936.28;5117341;27;20206;-69
2021/05/04 09:59:59;;;;;;;1.10;0.60;;;;;;;11.78;57.44;98939.41;5118666;27;20200;-68
2021/05/04 10:02:25;;;;;;;0.70;0.70;;;;;;;11.83;57.48;98947.78;5116527;27;20210;-68
2021/05/04 10:04:53;;;;;;;1.73;1.00;;;;;;;11.86;57.72;98938.66;5116655;27;20195;-69
2021/05/04 10:07:20;;;;;;;0.50;0.50;;;;;;;11.93;57.46;98931.75;5114912;27;20204;-70
2021/05/04 10:09:47;;;;;;;1.43;0.70;;;;;;;12.00;57.07;98931.00;5117881;27;20665;-69
2021/05/04 10:12:14;;;;;;;1.13;0.60;;;;;;;12.06;56.90;98943.75;5116259;27;20599;-69
2021/05/04 10:14:41;;;;;;;1.00;1.00;;;;;;;12.05;56.54;98950.09;5119159;27;20228;-69
2021/05/04 10:17:08;;;;;;;0.50;0.50;;;;;;;12.05;56.70;98954.56;5115906;27;20201;-69
2021/05/04 10:19:36;;;;;;;1.63;0.70;;;;;;;12.04;56.35;98952.91;5117529;27;20200;-69
2021/05/04 10:22:04;;;;;;;1.47;0.80;;;;;;;12.03;56.34;98957.38;5114678;27;20730;-69
2021/05/04 10:24:32;;;;;;;1.03;0.90;;;;;;;12.02;56.51;98944.19;5114777;27;20236;-69
2021/05/04 10:27:01;;;;;;;2.13;1.27;;;;;;;12.05;56.39;98951.91;5115805;27;20199;-68
2021/05/04 10:29:28;;;;;;;1.23;0.80;;;;;;;12.07;56.59;98941.94;5117040;27;20743;-69
2021/05/04 10:31:57;;;;;;;0.60;0.60;;;;;;;12.15;56.54;98936.72;5117397;27;21134;-68
2021/05/04 10:34:32;;;;;;;1.97;0.77;;;;;;;12.20;56.33;98922.91;5115155;27;20287;-68
2021/05/04 10:36:59;;;;;;;0.73;0.73;;;;;;;12.26;56.13;98924.97;5111741;27;20195;-67
2021/05/04 10:39:43;;;;;;;1.60;0.60;;;;;;;12.29;55.90;98912.19;5115179;27;20695;-68
2021/05/04 10:42:11;;;;;;;1.83;0.60;;;;;;;12.31;55.66;98918.22;5114472;27;20578;-67
2021/05/04 10:45:09;;;;;;;0.70;0.70;;;;;;;12.36;55.72;98917.75;5114105;27;20284;-68
2021/05/04 10:47:46;;;;;;;1.50;0.77;;;;;;;12.41;55.38;98902.13;5112289;27;20235;-68
2021/05/04 10:50:14;;;;;;;1.77;0.60;;;;;;;12.45;55.34;98908.84;5114674;27;20215;-69
2021/05/04 10:53:01;;;;;;;1.20;0.97;;;;;;;12.48;55.40;98920.06;5111412;27;20237;-68
2021/05/04 10:56:00;;;;;;;1.57;0.70;;;;;;;12.50;55.05;98896.72;5113406;27;20253;-68
2021/05/04 10:58:29;;;;;;;1.67;0.80;;;;;;;12.50;54.89;98903.88;5100948;27;20532;-69
2021/05/04 11:00:58;;;;;;;1.13;0.80;;;;;;;12.49;54.67;98888.84;5111441;27;20625;-68
2021/05/04 11:03:47;;;;;;;1.20;0.63;;;;;;;12.48;54.40;98893.34;5112946;27;20214;-68
2021/05/04 11:06:14;;;;;;;0.87;0.67;;;;;;;12.51;54.43;98898.41;5108603;27;20231;-68
2021/05/04 11:09:12;;;;;;;0.53;0.53;;;;;;;12.56;54.43;98895.25;5115234;27;20221;-67
2021/05/04 11:11:41;;;;;;;0.43;0.43;;;;;;;12.58;54.13;98889.75;5112265;27;20215;-69
2021/05/04 11:14:18;;;;;;;0.80;0.57;;;;;;;12.60;54.67;98874.44;5111971;27;20756;-68
2021/05/04 11:16:46;;;;;;;2.20;0.70;;;;;;;12.63;54.44;98863.44;5111993;27;20195;-68
2021/05/04 11:19:16;;;;;;;0.70;0.70;;;;;;;12.67;54.47;98863.00;5113627;27;20200;-68
2021/05/04 11:21:44;;;;;;;2.43;0.80;;;;;;;12.70;54.64;98867.19;5114596;27;20210;-67
2021/05/04 11:24:11;;;;;;;0.97;0.90;;;;;;;12.68;54.48;98847.81;5115357;27;20235;-66
2021/05/04 11:26:43;;;;;;;1.07;0.53;;;;;;;12.66;54.70;98847.97;5115344;27;20999;-67
2021/05/04 11:29:11;;;;;;;1.03;0.80;;;;;;;12.66;54.63;98852.47;5118348;27;20304;-66
2021/05/04 11:31:37;;;;;;;1.00;0.87;;;;;;;12.65;54.87;98850.78;5113120;27;20284;-67
2021/05/04 11:34:42;;;;;;;2.43;1.03;;;;;;;12.64;55.27;98860.63;5116113;27;20231;-67
2021/05/04 11:37:11;;;;;;;1.27;0.70;;;;;;;12.58;55.81;98879.06;5097470;27;20775;-66
2021/05/04 11:39:37;;;;;;;1.30;1.00;;;;;;;12.53;56.43;98876.88;5114583;27;20199;-67